createdAt,value
2022-09-29T02:32:42.729Z,6.60
2022-09-29T02:35:17.705Z,5.50
2022-09-29T02:38:05.198Z,6.17
2022-09-29T02:40:51.363Z,8.03
2022-09-29T02:43:55.567Z,7.37
2022-09-29T02:46:45.595Z,5.00
2022-09-29T02:49:51.742Z,6.30
2022-09-29T02:52:43.048Z,5.70
2022-09-29T02:55:26.768Z,5.40
2022-09-29T02:58:05.390Z,5.37
2022-09-29T03:00:41.394Z,5.90
2022-09-29T03:03:14.788Z,5.10
2022-09-29T03:05:52.142Z,7.53
2022-09-29T03:08:25.626Z,5.37
2022-09-29T03:10:59.044Z,5.20
2022-09-29T03:13:32.337Z,7.00
2022-09-29T03:16:06.428Z,6.10
2022-09-29T03:18:39.729Z,5.63
2022-09-29T03:21:14.596Z,4.70
2022-09-29T03:23:48.367Z,5.57
2022-09-29T03:26:21.790Z,5.87
2022-09-29T03:28:55.379Z,4.80
2022-09-29T03:31:28.839Z,7.27
2022-09-29T03:34:02.433Z,5.30
2022-09-29T03:36:37.113Z,4.63
2022-09-29T03:39:10.568Z,5.23
2022-09-29T03:41:43.832Z,5.80
2022-09-29T03:44:17.425Z,6.13
2022-09-29T03:46:50.826Z,5.73
2022-09-29T03:49:24.228Z,4.60
2022-09-29T03:51:59.216Z,5.17
2022-09-29T03:54:32.608Z,6.17
2022-09-29T03:57:06.356Z,5.10
2022-09-29T03:59:43.350Z,5.47
2022-09-29T04:02:19.935Z,4.60
2022-09-29T04:04:53.250Z,6.77
2022-09-29T04:07:29.257Z,6.30
2022-09-29T04:10:02.592Z,4.43
2022-09-29T04:12:35.939Z,4.50
2022-09-29T04:15:10.795Z,5.03
2022-09-29T04:17:44.243Z,5.33
2022-09-29T04:20:19.346Z,4.37
2022-09-29T04:22:54.325Z,4.73
2022-09-29T04:25:27.999Z,5.47
2022-09-29T04:28:02.771Z,4.87
2022-09-29T04:30:36.127Z,6.93
2022-09-29T04:33:09.949Z,4.63
2022-09-29T04:35:44.319Z,4.83
2022-09-29T04:38:19.185Z,5.37
2022-09-29T04:40:52.753Z,5.33
2022-09-29T04:43:26.470Z,5.33
2022-09-29T04:46:07.979Z,6.57
2022-09-29T04:48:41.470Z,5.70
2022-09-29T04:51:16.374Z,5.23
2022-09-29T04:53:53.325Z,5.47
2022-09-29T04:56:31.391Z,5.20
2022-09-29T04:59:05.083Z,5.93
2022-09-29T05:01:39.778Z,6.03
2022-09-29T05:04:13.832Z,6.20
2022-09-29T05:06:47.542Z,5.87
2022-09-29T05:09:24.808Z,6.03
2022-09-29T05:11:58.745Z,5.83
2022-09-29T05:14:35.085Z,5.87
2022-09-29T05:17:08.482Z,5.90
2022-09-29T05:19:41.823Z,6.13
2022-09-29T05:22:15.335Z,6.83
2022-09-29T05:24:50.182Z,5.57
2022-09-29T05:27:23.697Z,6.17
2022-09-29T05:29:57.094Z,7.30
2022-09-29T05:32:30.697Z,5.53
2022-09-29T05:35:04.527Z,6.23
2022-09-29T05:37:37.873Z,6.17
2022-09-29T05:40:13.370Z,6.97
2022-09-29T05:42:47.103Z,6.30
2022-09-29T05:45:20.701Z,5.93
2022-09-29T05:47:57.621Z,6.07
2022-09-29T05:50:32.271Z,7.03
2022-09-29T05:53:05.719Z,6.13
2022-09-29T05:55:40.905Z,6.90
2022-09-29T05:58:15.454Z,6.50
2022-09-29T06:00:49.040Z,6.67
2022-09-29T06:03:22.464Z,7.00
2022-09-29T06:05:55.787Z,7.27
2022-09-29T06:08:29.052Z,6.60
2022-09-29T06:11:09.162Z,6.20
2022-09-29T06:13:45.007Z,6.40
2022-09-29T06:16:20.751Z,6.43
2022-09-29T06:18:55.108Z,6.87
2022-09-29T06:21:31.222Z,6.17
2022-09-29T06:24:07.157Z,7.13
2022-09-29T06:26:42.052Z,7.43
2022-09-29T06:29:16.920Z,6.47
2022-09-29T06:31:50.589Z,7.50
2022-09-29T06:34:24.425Z,6.43
2022-09-29T06:37:15.169Z,6.03
2022-09-29T06:39:48.576Z,6.17
2022-09-29T06:42:23.462Z,6.33
2022-09-29T06:44:57.087Z,6.20
2022-09-29T06:47:30.486Z,6.20
2022-09-29T06:50:11.721Z,6.63
2022-09-29T06:52:56.800Z,5.93
2022-09-29T06:55:32.340Z,6.00
2022-09-29T06:58:07.073Z,6.60
2022-09-29T07:00:40.524Z,7.57
2022-09-29T07:03:13.839Z,6.40
2022-09-29T07:06:01.936Z,6.00
2022-09-29T07:08:40.831Z,6.07
2022-09-29T07:11:15.067Z,6.17
2022-09-29T07:13:54.414Z,6.73
2022-09-29T07:16:28.215Z,6.57
2022-09-29T07:19:01.833Z,6.57
2022-09-29T07:21:35.511Z,6.70
2022-09-29T07:24:10.413Z,7.77
2022-09-29T07:26:43.817Z,6.13
2022-09-29T07:29:18.782Z,5.87
2022-09-29T07:31:53.097Z,5.27
2022-09-29T07:34:26.731Z,5.90
2022-09-29T07:37:00.092Z,6.70
2022-09-29T07:39:34.762Z,4.97
2022-09-29T07:42:09.380Z,5.67
2022-09-29T07:44:45.616Z,6.07
2022-09-29T07:47:22.112Z,6.93
2022-09-29T07:49:55.517Z,6.27
2022-09-29T07:52:29.089Z,5.20
2022-09-29T07:55:02.547Z,5.40
2022-09-29T07:57:35.873Z,5.40
2022-09-29T08:00:13.197Z,5.13
2022-09-29T08:02:46.796Z,5.53
2022-09-29T08:05:20.565Z,5.10
2022-09-29T08:07:54.531Z,5.17
2022-09-29T08:10:31.280Z,5.47
2022-09-29T08:13:05.004Z,6.07
2022-09-29T08:15:39.664Z,4.47
2022-09-29T08:18:13.069Z,5.63
2022-09-29T08:20:49.158Z,4.93
2022-09-29T08:23:23.365Z,4.20
2022-09-29T08:26:02.669Z,5.40
2022-09-29T08:28:39.209Z,5.47
2022-09-29T08:31:18.107Z,5.73
2022-09-29T08:33:53.078Z,5.23
2022-09-29T08:36:27.536Z,4.10
2022-09-29T08:39:00.978Z,3.40
2022-09-29T08:41:50.609Z,3.97
2022-09-29T08:44:39.175Z,3.67
2022-09-29T08:47:36.066Z,4.50
2022-09-29T08:50:21.790Z,4.87
2022-09-29T08:52:59.553Z,4.50
2022-09-29T08:55:43.982Z,3.47
2022-09-29T08:58:17.600Z,4.87
2022-09-29T09:01:09.495Z,3.83
2022-09-29T09:04:28.890Z,3.97
2022-09-29T09:07:12.787Z,2.80
2022-09-29T09:10:18.510Z,3.10
2022-09-29T09:13:20.016Z,3.23
2022-09-29T09:16:13.396Z,2.33
2022-09-29T09:19:26.767Z,2.60
2022-09-29T09:22:15.771Z,3.43
2022-09-29T09:24:58.387Z,2.50
2022-09-29T09:27:45.811Z,5.23
2022-09-29T09:30:21.985Z,4.00
2022-09-29T09:33:03.116Z,3.33
2022-09-29T09:35:56.599Z,3.73
2022-09-29T09:38:47.823Z,3.40
2022-09-29T09:41:26.357Z,3.47
2022-09-29T09:44:08.508Z,2.90
2022-09-29T09:46:50.098Z,3.23
2022-09-29T09:49:31.286Z,3.20
2022-09-29T09:52:16.090Z,3.23
2022-09-29T09:54:54.412Z,2.93
2022-09-29T09:58:12.307Z,3.67
2022-09-29T10:00:52.290Z,3.37
2022-09-29T10:03:26.008Z,3.43
2022-09-29T10:06:00.504Z,3.60
2022-09-29T10:08:40.054Z,3.17
2022-09-29T10:11:25.312Z,4.73
2022-09-29T10:14:07.453Z,3.77
2022-09-29T10:16:48.884Z,4.20
2022-09-29T10:19:24.061Z,2.47
2022-09-29T10:22:15.220Z,2.63
2022-09-29T10:24:55.229Z,3.17
2022-09-29T10:27:28.628Z,2.33
2022-09-29T10:30:04.281Z,3.03
2022-09-29T10:32:37.953Z,3.60
2022-09-29T10:35:23.310Z,2.60
2022-09-29T10:38:03.781Z,2.70
2022-09-29T10:40:39.327Z,2.10
2022-09-29T10:43:26.939Z,2.60
2022-09-29T10:46:00.309Z,1.70
2022-09-29T10:48:33.940Z,1.30
2022-09-29T10:51:23.666Z,1.50
2022-09-29T10:53:58.147Z,4.03
2022-09-29T10:56:33.034Z,2.17
2022-09-29T10:59:06.562Z,3.50
2022-09-29T11:01:49.848Z,2.47
2022-09-29T11:04:29.430Z,2.57
2022-09-29T11:07:11.296Z,1.27
2022-09-29T11:09:48.123Z,1.37
2022-09-29T11:12:35.180Z,1.77
2022-09-29T11:15:28.574Z,2.37
2022-09-29T11:18:01.934Z,1.93
2022-09-29T11:20:38.310Z,2.93
2022-09-29T11:23:32.407Z,2.10
2022-09-29T11:26:30.173Z,2.20
2022-09-29T11:29:30.381Z,2.33
2022-09-29T11:32:21.711Z,3.90
2022-09-29T11:35:28.234Z,1.77
2022-09-29T11:38:41.111Z,1.77
2022-09-29T11:41:39.087Z,1.80
2022-09-29T11:44:40.126Z,2.43
2022-09-29T11:47:41.564Z,1.73
2022-09-29T11:50:40.020Z,2.90
2022-09-29T11:53:34.337Z,1.13
2022-09-29T11:56:26.562Z,1.80
2022-09-29T11:59:22.076Z,1.67
2022-09-29T12:02:29.530Z,1.73
2022-09-29T12:05:17.470Z,1.30
2022-09-29T12:08:10.790Z,1.03
2022-09-29T12:10:56.643Z,1.00
2022-09-29T12:13:46.858Z,1.70
2022-09-29T12:16:26.281Z,1.40
2022-09-29T12:19:08.100Z,3.10
2022-09-29T12:21:47.087Z,1.20
2022-09-29T12:24:34.970Z,2.37
2022-09-29T12:27:17.025Z,0.77
2022-09-29T12:29:56.768Z,1.83
2022-09-29T12:32:37.029Z,2.57
2022-09-29T12:35:20.186Z,1.67
2022-09-29T12:38:01.705Z,1.03
2022-09-29T12:40:40.535Z,1.37
2022-09-29T12:43:20.547Z,3.70
2022-09-29T12:46:04.589Z,2.07
2022-09-29T12:48:57.566Z,1.00
2022-09-29T12:51:38.222Z,1.50
2022-09-29T12:54:22.315Z,0.73
2022-09-29T12:57:01.850Z,1.17
2022-09-29T12:59:41.524Z,1.10
2022-09-29T13:02:51.705Z,1.73
2022-09-29T13:06:08.957Z,0.87
2022-09-29T13:09:22.856Z,0.83
2022-09-29T13:12:37.653Z,1.13
2022-09-29T13:15:59.253Z,2.20
2022-09-29T13:19:26.153Z,1.20
2022-09-29T13:22:34.783Z,0.60
2022-09-29T13:25:25.341Z,0.70
2022-09-29T13:27:59.853Z,1.03
2022-09-29T13:30:38.632Z,0.97
2022-09-29T13:33:21.043Z,1.67
2022-09-29T13:35:55.561Z,2.10
2022-09-29T13:38:33.676Z,1.00
2022-09-29T13:41:34.489Z,1.40
2022-09-29T13:44:27.765Z,1.87
2022-09-29T13:47:34.627Z,2.50
2022-09-29T13:50:43.785Z,1.87
2022-09-29T13:53:37.639Z,2.43
2022-09-29T13:56:19.959Z,2.83
2022-09-29T13:59:01.839Z,1.63
2022-09-29T14:01:39.255Z,2.00
2022-09-29T14:04:52.226Z,1.53
2022-09-29T14:07:44.436Z,1.23
2022-09-29T14:10:41.518Z,3.03
2022-09-29T14:13:27.149Z,1.30
2022-09-29T14:16:19.208Z,2.50
2022-09-29T14:19:01.643Z,2.27
2022-09-29T14:21:55.159Z,2.33
2022-09-29T14:24:50.535Z,2.97
2022-09-29T14:27:33.964Z,2.43
2022-09-29T14:30:20.203Z,2.53
2022-09-29T14:33:00.285Z,1.97
2022-09-29T14:35:37.386Z,1.20
2022-09-29T14:38:21.856Z,1.17
2022-09-29T14:41:02.315Z,1.30
2022-09-29T14:43:43.836Z,1.77
2022-09-29T14:46:57.751Z,1.57
2022-09-29T14:50:36.143Z,1.17
2022-09-29T14:53:56.613Z,2.30
2022-09-29T14:56:50.260Z,1.80
2022-09-29T14:59:44.335Z,2.00
2022-09-29T15:02:26.866Z,1.77
2022-09-29T15:05:01.010Z,1.87
2022-09-29T15:07:42.579Z,2.47
2022-09-29T15:10:25.607Z,1.80
2022-09-29T15:13:20.178Z,1.20
2022-09-29T15:16:01.650Z,1.30
2022-09-29T15:19:01.650Z,3.00
2022-09-29T15:21:48.353Z,1.40
2022-09-29T15:25:00.706Z,1.27
2022-09-29T15:27:34.956Z,2.23
2022-09-29T15:30:17.364Z,1.93
2022-09-29T15:32:54.267Z,1.60
2022-09-29T15:35:27.941Z,2.10
2022-09-29T15:38:32.492Z,2.17
2022-09-29T15:41:17.762Z,2.00
2022-09-29T15:43:58.768Z,1.77
2022-09-29T15:46:42.121Z,2.20
2022-09-29T15:49:21.379Z,1.20
2022-09-29T15:52:01.128Z,1.33
2022-09-29T15:54:40.298Z,2.03
2022-09-29T15:57:47.232Z,2.70
2022-09-29T16:00:48.239Z,1.63
2022-09-29T16:03:30.378Z,1.60
2022-09-29T16:06:14.884Z,2.50
2022-09-29T16:08:53.545Z,1.90
2022-09-29T16:11:31.853Z,1.10
2022-09-29T16:14:11.963Z,2.70
2022-09-29T16:16:48.674Z,0.80
2022-09-29T16:19:26.300Z,3.27
2022-09-29T16:22:06.459Z,2.17
2022-09-29T16:25:11.002Z,0.90
2022-09-29T16:27:56.031Z,1.83
2022-09-29T16:30:35.901Z,1.80
2022-09-29T16:33:17.260Z,1.83
2022-09-29T16:36:02.553Z,2.23
2022-09-29T16:38:41.177Z,1.23
2022-09-29T16:41:27.793Z,2.53
2022-09-29T16:44:13.708Z,1.10
2022-09-29T16:46:51.298Z,4.17
2022-09-29T16:49:29.536Z,5.60
2022-09-29T16:52:16.101Z,4.80
2022-09-29T16:54:52.357Z,4.43
2022-09-29T16:57:28.979Z,3.47
2022-09-29T17:00:22.567Z,3.80
2022-09-29T17:02:57.877Z,4.07
2022-09-29T17:05:32.295Z,3.17
2022-09-29T17:08:14.100Z,2.47
2022-09-29T17:10:49.287Z,2.33
2022-09-29T17:13:23.801Z,3.47
2022-09-29T17:15:57.126Z,2.47
2022-09-29T17:18:31.031Z,2.63
2022-09-29T17:21:04.536Z,3.10
2022-09-29T17:23:37.928Z,1.33
2022-09-29T17:26:39.089Z,2.47
2022-09-29T17:29:12.644Z,2.50
2022-09-29T17:31:46.230Z,2.27
2022-09-29T17:34:22.968Z,1.60
2022-09-29T17:37:10.962Z,2.67
2022-09-29T17:39:44.316Z,3.43
2022-09-29T17:42:20.090Z,2.77
2022-09-29T17:44:53.618Z,2.17
2022-09-29T17:47:29.090Z,2.80
2022-09-29T17:50:22.678Z,1.93
2022-09-29T17:52:58.932Z,4.90
2022-09-29T17:55:34.001Z,2.07
2022-09-29T17:58:09.756Z,2.13
2022-09-29T18:00:47.110Z,3.93
2022-09-29T18:03:23.039Z,3.67
2022-09-29T18:05:58.733Z,2.63
2022-09-29T18:08:32.293Z,3.13
2022-09-29T18:11:05.804Z,2.43
2022-09-29T18:13:41.824Z,2.13
2022-09-29T18:16:19.549Z,2.43
2022-09-29T18:18:58.025Z,2.20
2022-09-29T18:21:34.036Z,2.37
2022-09-29T18:24:10.099Z,2.90
2022-09-29T18:26:46.534Z,2.47
2022-09-29T18:29:21.288Z,3.40
2022-09-29T18:31:54.645Z,2.90
2022-09-29T18:34:30.986Z,3.73
2022-09-29T18:37:04.826Z,4.50
2022-09-29T18:39:39.310Z,10.77
2022-09-29T18:42:13.159Z,13.93
2022-09-29T18:44:48.371Z,8.67
2022-09-29T18:47:21.808Z,9.17
2022-09-29T18:49:55.267Z,9.13
2022-09-29T18:52:28.933Z,7.30
2022-09-29T18:55:02.387Z,7.53
2022-09-29T18:57:35.782Z,5.03
2022-09-29T19:00:14.747Z,5.43
2022-09-29T19:02:49.653Z,5.33
2022-09-29T19:05:28.974Z,5.27
2022-09-29T19:08:05.487Z,3.70
2022-09-29T19:10:41.299Z,4.07
2022-09-29T19:13:17.429Z,4.17
2022-09-29T19:15:57.364Z,3.33
2022-09-29T19:18:30.732Z,3.30
2022-09-29T19:21:12.423Z,4.07
2022-09-29T19:23:47.209Z,3.30
2022-09-29T19:26:23.467Z,3.87
2022-09-29T19:28:56.883Z,3.60
2022-09-29T19:31:31.643Z,3.53
2022-09-29T19:34:05.510Z,3.10
2022-09-29T19:36:39.236Z,3.60
2022-09-29T19:39:13.589Z,2.93
2022-09-29T19:41:47.073Z,4.03
2022-09-29T19:44:20.774Z,3.03
2022-09-29T19:46:55.682Z,3.60
2022-09-29T19:49:29.420Z,4.13
2022-09-29T19:52:02.217Z,3.83
2022-09-29T19:54:40.997Z,4.83
2022-09-29T19:57:16.174Z,3.90
2022-09-29T19:59:49.545Z,12.33
2022-09-29T20:02:24.368Z,4.97
2022-09-29T20:04:58.038Z,4.17
2022-09-29T20:07:31.419Z,4.33
2022-09-29T20:10:05.659Z,5.30
2022-09-29T20:12:39.524Z,5.33
2022-09-29T20:15:13.297Z,4.70
2022-09-29T20:17:49.155Z,5.07
2022-09-29T20:20:23.759Z,4.83
2022-09-29T20:22:57.056Z,5.10
2022-09-29T20:25:30.508Z,3.00
2022-09-29T20:28:03.881Z,4.10
2022-09-29T20:30:37.388Z,4.13
2022-09-29T20:33:12.231Z,4.33
2022-09-29T20:35:45.574Z,4.43
2022-09-29T20:38:19.063Z,5.37
2022-09-29T20:40:53.747Z,4.63
2022-09-29T20:43:27.185Z,5.27
2022-09-29T20:46:04.184Z,4.57
2022-09-29T20:48:41.051Z,4.73
2022-09-29T20:51:16.448Z,4.03
2022-09-29T20:53:54.958Z,4.57
2022-09-29T20:56:35.895Z,5.50
2022-09-29T20:59:13.626Z,4.30
2022-09-29T21:01:48.794Z,5.77
2022-09-29T21:04:24.089Z,4.10
2022-09-29T21:06:57.865Z,5.30
2022-09-29T21:09:31.559Z,6.30
2022-09-29T21:12:05.211Z,4.87
2022-09-29T21:14:38.568Z,4.43
2022-09-29T21:17:11.915Z,6.53
2022-09-29T21:19:46.675Z,4.37
2022-09-29T21:22:24.097Z,4.60
2022-09-29T21:25:00.478Z,8.00
2022-09-29T21:27:36.675Z,4.97
2022-09-29T21:30:12.756Z,4.40
2022-09-29T21:32:46.131Z,6.87
2022-09-29T21:35:20.923Z,3.97
2022-09-29T21:37:54.334Z,4.90
2022-09-29T21:40:27.644Z,4.43
2022-09-29T21:43:00.995Z,4.87
2022-09-29T21:45:34.289Z,3.87
2022-09-29T21:48:11.472Z,8.50
2022-09-29T21:50:46.429Z,3.97
2022-09-29T21:53:19.799Z,3.00
2022-09-29T21:55:53.140Z,4.43
2022-09-29T21:58:26.602Z,4.63
2022-09-29T22:01:01.092Z,3.43
2022-09-29T22:03:38.875Z,3.63
2022-09-29T22:06:16.101Z,4.03
2022-09-29T22:08:51.181Z,4.20
2022-09-29T22:11:29.048Z,3.27
2022-09-29T22:14:03.491Z,6.23
2022-09-29T22:16:37.016Z,3.57
2022-09-29T22:19:22.880Z,6.17
2022-09-29T22:21:58.661Z,8.47
2022-09-29T22:24:31.935Z,5.60
2022-09-29T22:27:05.981Z,6.53
2022-09-29T22:29:44.861Z,4.93
2022-09-29T22:32:18.199Z,4.33
2022-09-29T22:34:52.595Z,4.87
2022-09-29T22:37:30.787Z,4.73
2022-09-29T22:40:05.774Z,3.47
2022-09-29T22:42:39.335Z,4.93
2022-09-29T22:45:13.368Z,4.30
2022-09-29T22:47:46.873Z,3.73
2022-09-29T22:50:23.553Z,3.43
2022-09-29T22:52:59.228Z,4.53
2022-09-29T22:55:34.792Z,4.80
2022-09-29T22:58:08.118Z,5.27
2022-09-29T23:00:43.030Z,4.73
2022-09-29T23:03:16.934Z,4.00
2022-09-29T23:05:50.366Z,3.70
2022-09-29T23:08:25.939Z,3.83
2022-09-29T23:10:59.526Z,4.13
2022-09-29T23:13:36.722Z,3.60
2022-09-29T23:16:13.186Z,4.53
2022-09-29T23:18:47.756Z,4.07
2022-09-29T23:21:21.278Z,3.67
2022-09-29T23:24:00.669Z,3.30
2022-09-29T23:26:34.544Z,5.03
2022-09-29T23:29:08.614Z,3.43
2022-09-29T23:31:49.259Z,4.17
2022-09-29T23:34:23.786Z,4.70
2022-09-29T23:36:57.507Z,4.03
2022-09-29T23:39:31.700Z,4.13
2022-09-29T23:42:08.633Z,2.73
2022-09-29T23:44:42.187Z,3.37
2022-09-29T23:47:15.475Z,3.90
2022-09-29T23:49:48.834Z,2.60
2022-09-29T23:52:23.976Z,3.10
2022-09-29T23:54:58.832Z,2.97
2022-09-29T23:57:32.386Z,3.07
